createdAt,value
2023-01-17T00:00:27.422Z,83.06
2023-01-17T00:01:27.389Z,82.75
2023-01-17T00:02:27.383Z,82.65
2023-01-17T00:03:27.377Z,82.38
2023-01-17T00:04:27.342Z,83.17
2023-01-17T00:05:27.353Z,82.82
2023-01-17T00:06:27.298Z,82.38
2023-01-17T00:07:27.365Z,82.48
2023-01-17T00:08:27.271Z,82.45
2023-01-17T00:09:27.264Z,83.06
2023-01-17T00:10:27.303Z,81.86
2023-01-17T00:11:27.234Z,81.76
2023-01-17T00:12:27.232Z,81.72
2023-01-17T00:13:27.245Z,81.48
2023-01-17T00:14:27.219Z,81.82
2023-01-17T00:15:27.199Z,81.96
2023-01-17T00:16:27.196Z,82.15
2023-01-17T00:17:27.194Z,82.69
2023-01-17T00:18:27.240Z,81.72
2023-01-17T00:19:27.176Z,81.76
2023-01-17T00:20:27.145Z,81.51
2023-01-17T00:21:27.137Z,81.72
2023-01-17T00:22:27.117Z,81.45
2023-01-17T00:23:27.106Z,82.07
2023-01-17T00:24:27.105Z,82.07
2023-01-17T00:25:27.106Z,82.24
2023-01-17T00:26:27.078Z,81.45
2023-01-17T00:27:27.085Z,81.86
2023-01-17T00:28:27.064Z,82.07
2023-01-17T00:29:27.039Z,81.82
2023-01-17T00:30:27.047Z,81.72
2023-01-17T00:31:27.042Z,81.27
2023-01-17T00:32:27.001Z,81.00
2023-01-17T00:33:26.991Z,81.62
2023-01-17T00:34:26.988Z,81.41
2023-01-17T00:35:26.971Z,80.58
2023-01-17T00:36:26.971Z,81.14
2023-01-17T00:37:26.964Z,81.31
2023-01-17T00:38:26.934Z,82.00
2023-01-17T00:39:26.937Z,82.48
2023-01-17T00:40:26.916Z,81.99
2023-01-17T00:41:26.943Z,81.07
2023-01-17T00:42:26.877Z,80.76
2023-01-17T00:43:26.875Z,79.93
2023-01-17T00:44:26.868Z,80.69
2023-01-17T00:45:26.848Z,80.62
2023-01-17T00:46:26.877Z,80.76
2023-01-17T00:47:26.848Z,80.28
2023-01-17T00:48:26.818Z,80.20
2023-01-17T00:49:26.827Z,79.97
2023-01-17T00:50:26.797Z,80.79
2023-01-17T00:51:26.832Z,80.55
2023-01-17T00:52:26.847Z,80.48
2023-01-17T00:53:26.758Z,80.48
2023-01-17T00:54:26.765Z,80.24
2023-01-17T00:55:26.740Z,79.69
2023-01-17T00:56:26.759Z,79.17
2023-01-17T00:57:26.719Z,79.27
2023-01-17T00:58:26.736Z,79.93
2023-01-17T00:59:26.698Z,79.58
2023-01-17T01:00:26.709Z,80.44
2023-01-17T01:01:26.767Z,80.48
2023-01-17T01:02:28.493Z,80.65
2023-01-17T01:03:26.690Z,80.62
2023-01-17T01:04:26.639Z,81.17
2023-01-17T01:05:26.623Z,81.34
2023-01-17T01:06:26.623Z,81.34
2023-01-17T01:07:26.635Z,79.90
2023-01-17T01:08:26.590Z,80.51
2023-01-17T01:09:26.599Z,79.83
2023-01-17T01:10:26.585Z,80.90
2023-01-17T01:11:26.570Z,81.96
2023-01-17T01:12:26.555Z,81.62
2023-01-17T01:13:26.551Z,82.03
2023-01-17T01:14:26.556Z,82.14
2023-01-17T01:15:26.512Z,81.04
2023-01-17T01:16:26.528Z,81.56
2023-01-17T01:17:26.500Z,80.21
2023-01-17T01:18:26.498Z,81.10
2023-01-17T01:19:26.471Z,80.76
2023-01-17T01:20:26.483Z,80.30
2023-01-17T01:21:26.455Z,80.20
2023-01-17T01:22:26.443Z,80.14
2023-01-17T01:23:26.421Z,79.55
2023-01-17T01:24:26.410Z,79.28
2023-01-17T01:25:26.452Z,79.62
2023-01-17T01:26:26.404Z,79.07
2023-01-17T01:27:26.397Z,78.21
2023-01-17T01:28:26.371Z,78.24
2023-01-17T01:29:26.361Z,78.45
2023-01-17T01:30:26.382Z,78.01
2023-01-17T01:31:26.391Z,78.52
2023-01-17T01:32:26.326Z,78.38
2023-01-17T01:33:26.316Z,77.31
2023-01-17T01:34:26.302Z,77.15
2023-01-17T01:35:26.316Z,77.94
2023-01-17T01:36:26.318Z,77.22
2023-01-17T01:37:26.282Z,78.59
2023-01-17T01:38:26.266Z,78.01
2023-01-17T01:39:26.253Z,76.84
2023-01-17T01:40:26.251Z,77.53
2023-01-17T01:41:26.236Z,77.39
2023-01-17T01:42:26.223Z,77.22
2023-01-17T01:43:26.214Z,77.84
2023-01-17T01:44:26.183Z,77.84
2023-01-17T01:45:26.231Z,77.73
2023-01-17T01:46:26.182Z,78.14
2023-01-17T01:47:26.194Z,77.73
2023-01-17T01:48:26.134Z,77.46
2023-01-17T01:49:26.151Z,77.39
2023-01-17T01:50:26.125Z,76.94
2023-01-17T01:51:26.114Z,77.25
2023-01-17T01:52:26.095Z,77.15
2023-01-17T01:53:26.121Z,77.87
2023-01-17T01:54:26.074Z,77.91
2023-01-17T01:55:26.068Z,77.18
2023-01-17T01:56:26.054Z,76.77
2023-01-17T01:57:26.043Z,77.49
2023-01-17T01:58:26.068Z,76.87
2023-01-17T01:59:26.027Z,77.42
2023-01-17T02:00:26.004Z,77.22
2023-01-17T02:01:26.076Z,77.49
2023-01-17T02:02:25.986Z,77.18
2023-01-17T02:03:26.007Z,77.18
2023-01-17T02:04:26.030Z,77.04
2023-01-17T02:05:25.955Z,76.94
2023-01-17T02:06:25.978Z,77.32
2023-01-17T02:07:25.938Z,76.81
2023-01-17T02:08:25.935Z,77.18
2023-01-17T02:09:25.935Z,76.81
2023-01-17T02:10:25.905Z,76.39
2023-01-17T02:11:25.891Z,76.39
2023-01-17T02:12:25.874Z,76.35
2023-01-17T02:13:25.877Z,76.43
2023-01-17T02:14:25.847Z,77.04
2023-01-17T02:15:25.877Z,76.60
2023-01-17T02:16:25.841Z,76.50
2023-01-17T02:17:25.826Z,76.81
2023-01-17T02:18:25.816Z,77.01
2023-01-17T02:19:25.792Z,76.87
2023-01-17T02:20:25.808Z,76.94
2023-01-17T02:21:25.792Z,76.53
2023-01-17T02:22:25.755Z,77.39
2023-01-17T02:23:25.747Z,76.64
2023-01-17T02:24:25.731Z,76.70
2023-01-17T02:25:25.734Z,76.39
2023-01-17T02:26:25.738Z,76.64
2023-01-17T02:27:25.705Z,76.73
2023-01-17T02:28:25.730Z,76.84
2023-01-17T02:29:25.679Z,76.32
2023-01-17T02:30:25.663Z,76.01
2023-01-17T02:31:25.665Z,76.39
2023-01-17T02:32:25.683Z,76.25
2023-01-17T02:33:25.635Z,76.64
2023-01-17T02:34:25.632Z,76.43
2023-01-17T02:35:25.621Z,76.46
2023-01-17T02:36:25.591Z,76.56
2023-01-17T02:37:25.591Z,76.12
2023-01-17T02:38:25.588Z,76.84
2023-01-17T02:39:25.558Z,76.94
2023-01-17T02:40:25.551Z,76.64
2023-01-17T02:41:25.539Z,76.43
2023-01-17T02:42:25.533Z,76.36
2023-01-17T02:43:25.549Z,76.01
2023-01-17T02:44:25.498Z,77.05
2023-01-17T02:45:25.497Z,76.98
2023-01-17T02:46:25.500Z,76.67
2023-01-17T02:47:25.500Z,76.87
2023-01-17T02:48:25.462Z,76.56
2023-01-17T02:49:25.467Z,76.01
2023-01-17T02:50:25.446Z,76.81
2023-01-17T02:51:25.424Z,76.60
2023-01-17T02:52:25.410Z,76.77
2023-01-17T02:53:25.399Z,75.74
2023-01-17T02:54:25.402Z,75.91
2023-01-17T02:55:25.409Z,76.39
2023-01-17T02:56:25.362Z,76.12
2023-01-17T02:57:25.349Z,75.29
2023-01-17T02:58:25.361Z,75.26
2023-01-17T02:59:25.331Z,75.26
2023-01-17T03:00:25.320Z,75.40
2023-01-17T03:01:25.418Z,75.95
2023-01-17T03:02:25.365Z,76.32
2023-01-17T03:03:25.281Z,75.67
2023-01-17T03:04:25.277Z,75.57
2023-01-17T03:05:25.262Z,75.12
2023-01-17T03:06:25.270Z,74.88
2023-01-17T03:07:25.250Z,74.74
2023-01-17T03:08:25.228Z,75.36
2023-01-17T03:09:25.229Z,75.36
2023-01-17T03:10:25.201Z,75.15
2023-01-17T03:11:25.203Z,74.46
2023-01-17T03:12:25.246Z,75.32
2023-01-17T03:13:25.189Z,75.53
2023-01-17T03:14:25.359Z,75.57
2023-01-17T03:15:25.143Z,75.15
2023-01-17T03:16:25.166Z,74.84
2023-01-17T03:17:25.138Z,74.84
2023-01-17T03:18:25.125Z,74.67
2023-01-17T03:19:25.102Z,74.84
2023-01-17T03:20:25.079Z,74.95
2023-01-17T03:21:25.074Z,74.95
2023-01-17T03:22:25.073Z,74.63
2023-01-17T03:23:25.074Z,74.15
2023-01-17T03:24:25.039Z,74.77
2023-01-17T03:25:25.047Z,74.12
2023-01-17T03:26:25.007Z,73.57
2023-01-17T03:27:25.006Z,73.64
2023-01-17T03:28:25.007Z,73.39
2023-01-17T03:29:25.003Z,73.08
2023-01-17T03:30:25.033Z,73.50
2023-01-17T03:31:24.953Z,73.50
2023-01-17T03:32:24.933Z,72.78
2023-01-17T03:33:24.934Z,72.36
2023-01-17T03:34:24.926Z,72.95
2023-01-17T03:35:24.942Z,72.19
2023-01-17T03:36:24.904Z,72.57
2023-01-17T03:37:24.921Z,72.47
2023-01-17T03:38:24.875Z,71.74
2023-01-17T03:39:24.864Z,71.43
2023-01-17T03:40:24.891Z,71.61
2023-01-17T03:41:24.873Z,72.19
2023-01-17T03:42:24.824Z,71.33
2023-01-17T03:43:24.829Z,71.57
2023-01-17T03:44:24.834Z,71.47
2023-01-17T03:45:24.795Z,70.92
2023-01-17T03:46:24.808Z,70.98
2023-01-17T03:47:24.764Z,70.92
2023-01-17T03:48:24.759Z,70.81
2023-01-17T03:49:24.749Z,70.40
2023-01-17T03:50:24.738Z,70.61
2023-01-17T03:51:24.761Z,70.47
2023-01-17T03:52:24.726Z,70.26
2023-01-17T03:53:24.706Z,69.74
2023-01-17T03:54:24.700Z,69.71
2023-01-17T03:55:24.675Z,69.88
2023-01-17T03:56:24.681Z,70.26
2023-01-17T03:57:24.656Z,70.26
2023-01-17T03:58:27.289Z,69.82
2023-01-17T03:59:24.626Z,69.82
2023-01-17T04:00:24.608Z,70.06
2023-01-17T04:01:24.697Z,70.57
2023-01-17T04:02:24.674Z,70.29
2023-01-17T04:03:24.609Z,69.37
2023-01-17T04:04:24.581Z,69.92
2023-01-17T04:05:24.567Z,70.29
2023-01-17T04:06:24.549Z,70.81
2023-01-17T04:07:24.546Z,70.47
2023-01-17T04:08:24.520Z,71.43
2023-01-17T04:09:24.535Z,70.50
2023-01-17T04:10:24.501Z,70.67
2023-01-17T04:11:24.491Z,70.57
2023-01-17T04:12:24.499Z,69.95
2023-01-17T04:13:24.457Z,69.40
2023-01-17T04:14:24.474Z,68.82
2023-01-17T04:15:24.463Z,69.29
2023-01-17T04:16:24.464Z,69.50
2023-01-17T04:17:24.427Z,69.54
2023-01-17T04:18:24.402Z,68.99
2023-01-17T04:19:24.389Z,68.64
2023-01-17T04:20:24.410Z,69.40
2023-01-17T04:21:24.369Z,69.12
2023-01-17T04:22:24.376Z,69.92
2023-01-17T04:23:24.348Z,69.71
2023-01-17T04:24:24.367Z,69.12
2023-01-17T04:25:24.319Z,69.40
2023-01-17T04:26:24.349Z,69.19
2023-01-17T04:27:24.322Z,68.98
2023-01-17T04:28:24.301Z,69.22
2023-01-17T04:29:24.309Z,68.70
2023-01-17T04:30:24.273Z,68.91
2023-01-17T04:31:24.307Z,68.91
2023-01-17T04:32:24.260Z,68.40
2023-01-17T04:33:24.231Z,68.15
2023-01-17T04:34:24.230Z,68.02
2023-01-17T04:35:24.228Z,67.64
2023-01-17T04:36:24.201Z,67.54
2023-01-17T04:37:24.210Z,67.61
2023-01-17T04:38:24.207Z,67.33
2023-01-17T04:39:24.163Z,67.43
2023-01-17T04:40:24.149Z,67.71
2023-01-17T04:41:24.138Z,67.54
2023-01-17T04:42:24.133Z,68.15
2023-01-17T04:43:24.150Z,68.36
2023-01-17T04:44:24.109Z,68.08
2023-01-17T04:45:24.116Z,67.98
2023-01-17T04:46:24.129Z,67.74
2023-01-17T04:47:24.060Z,68.15
2023-01-17T04:48:24.075Z,67.82
2023-01-17T04:49:24.070Z,68.36
2023-01-17T04:50:24.046Z,68.63
2023-01-17T04:51:24.023Z,68.91
2023-01-17T04:52:24.011Z,68.53
2023-01-17T04:53:24.003Z,70.57
2023-01-17T04:54:24.000Z,69.87
2023-01-17T04:55:24.007Z,69.56
2023-01-17T04:56:24.090Z,69.64
2023-01-17T04:57:23.961Z,69.60
2023-01-17T04:58:23.942Z,69.29
2023-01-17T04:59:23.934Z,69.40
2023-01-17T05:00:24.312Z,70.12
2023-01-17T05:01:24.034Z,69.50
2023-01-17T05:02:23.936Z,69.71
2023-01-17T05:03:23.888Z,69.92
2023-01-17T05:04:23.884Z,70.36
2023-01-17T05:05:23.854Z,70.05
2023-01-17T05:06:23.903Z,70.74
2023-01-17T05:07:23.845Z,70.12
2023-01-17T05:08:23.832Z,70.53
2023-01-17T05:09:23.822Z,70.43
2023-01-17T05:10:23.819Z,71.29
2023-01-17T05:11:23.798Z,71.50
2023-01-17T05:12:24.012Z,71.60
2023-01-17T05:13:23.779Z,71.63
2023-01-17T05:14:23.764Z,71.70
2023-01-17T05:15:23.773Z,72.15
2023-01-17T05:16:23.722Z,71.60
2023-01-17T05:17:23.823Z,71.81
2023-01-17T05:18:23.712Z,71.91
2023-01-17T05:19:23.695Z,71.60
2023-01-17T05:20:23.685Z,72.25
2023-01-17T05:21:23.732Z,72.77
2023-01-17T05:22:23.664Z,72.64
2023-01-17T05:23:23.857Z,72.53
2023-01-17T05:24:23.650Z,71.81
2023-01-17T05:25:23.645Z,71.57
2023-01-17T05:26:23.613Z,71.57
2023-01-17T05:27:23.613Z,71.57
2023-01-17T05:28:23.599Z,71.88
2023-01-17T05:29:23.843Z,72.08
2023-01-17T05:30:23.576Z,72.22
2023-01-17T05:31:23.771Z,72.53
2023-01-17T05:32:23.605Z,73.25
2023-01-17T05:33:23.572Z,72.85
2023-01-17T05:34:23.603Z,74.43
2023-01-17T05:35:23.525Z,74.95
2023-01-17T05:36:23.521Z,75.05
2023-01-17T05:37:23.528Z,74.95
2023-01-17T05:38:23.507Z,75.19
2023-01-17T05:39:23.507Z,75.81
2023-01-17T05:40:23.518Z,76.23
2023-01-17T05:41:23.463Z,75.92
2023-01-17T05:42:23.448Z,76.02
2023-01-17T05:43:23.462Z,76.23
2023-01-17T05:44:23.441Z,76.53
2023-01-17T05:45:23.418Z,76.78
2023-01-17T05:46:23.589Z,77.09
2023-01-17T05:47:23.412Z,77.81
2023-01-17T05:48:23.416Z,78.27
2023-01-17T05:49:23.403Z,77.81
2023-01-17T05:50:23.362Z,78.06
2023-01-17T05:51:23.382Z,77.95
2023-01-17T05:52:23.365Z,78.99
2023-01-17T05:53:23.329Z,78.89
2023-01-17T05:54:23.326Z,78.78
2023-01-17T05:55:23.342Z,78.89
2023-01-17T05:56:23.317Z,78.85
2023-01-17T05:57:23.314Z,78.58
2023-01-17T05:58:23.294Z,78.68
2023-01-17T05:59:36.204Z,79.41
2023-01-17T06:00:24.253Z,79.44
2023-01-17T06:01:23.282Z,80.16
2023-01-17T06:02:23.282Z,80.37
2023-01-17T06:03:23.249Z,80.89
2023-01-17T06:04:23.248Z,80.68
2023-01-17T06:05:23.217Z,81.04
2023-01-17T06:06:23.181Z,81.20
2023-01-17T06:07:23.196Z,81.30
2023-01-17T06:08:23.191Z,81.30
2023-01-17T06:09:23.239Z,81.30
2023-01-17T06:10:23.160Z,81.97
2023-01-17T06:11:23.152Z,82.18
2023-01-17T06:12:23.128Z,82.28
2023-01-17T06:13:23.137Z,82.28
2023-01-17T06:14:23.131Z,82.39
2023-01-17T06:15:23.108Z,81.87
2023-01-17T06:16:23.241Z,82.73
2023-01-17T06:17:23.058Z,82.80
2023-01-17T06:18:23.152Z,83.25
2023-01-17T06:19:23.068Z,82.90
2023-01-17T06:20:23.086Z,83.15
2023-01-17T06:21:23.101Z,83.42
2023-01-17T06:22:23.020Z,83.22
2023-01-17T06:23:23.028Z,83.04
2023-01-17T06:24:22.991Z,83.56
2023-01-17T06:25:22.998Z,83.67
2023-01-17T06:26:23.025Z,83.22
2023-01-17T06:27:22.967Z,83.15
2023-01-17T06:28:22.955Z,83.32
2023-01-17T06:29:22.928Z,83.01
2023-01-17T06:30:22.946Z,83.56
2023-01-17T06:31:23.028Z,83.67
2023-01-17T06:32:22.962Z,83.42
2023-01-17T06:33:22.888Z,83.11
2023-01-17T06:34:22.900Z,83.36
2023-01-17T06:35:22.879Z,82.94
2023-01-17T06:36:22.847Z,83.01
2023-01-17T06:37:22.850Z,82.59
2023-01-17T06:38:22.896Z,81.76
2023-01-17T06:39:22.847Z,82.07
2023-01-17T06:40:22.841Z,82.03
2023-01-17T06:41:22.803Z,81.30
2023-01-17T06:42:23.727Z,80.99
2023-01-17T06:43:22.813Z,80.75
2023-01-17T06:44:22.780Z,80.79
2023-01-17T06:45:22.764Z,80.54
2023-01-17T06:46:22.831Z,80.54
2023-01-17T06:47:22.803Z,80.54
2023-01-17T06:48:22.758Z,80.19
2023-01-17T06:49:22.741Z,80.09
2023-01-17T06:50:22.703Z,80.54
2023-01-17T06:51:22.694Z,80.85
2023-01-17T06:52:22.722Z,81.37
2023-01-17T06:53:22.680Z,81.72
2023-01-17T06:54:22.713Z,81.93
2023-01-17T06:55:22.671Z,82.14
2023-01-17T06:56:22.636Z,81.79
2023-01-17T06:57:22.626Z,81.58
2023-01-17T06:58:22.620Z,81.58
2023-01-17T06:59:22.612Z,81.48
2023-01-17T07:00:22.647Z,81.13
2023-01-17T07:01:22.737Z,80.82
2023-01-17T07:02:22.584Z,80.61
2023-01-17T07:03:22.560Z,80.51
2023-01-17T07:04:22.576Z,80.51
2023-01-17T07:05:22.589Z,80.40
2023-01-17T07:06:22.521Z,80.19
2023-01-17T07:07:22.528Z,79.78
2023-01-17T07:08:22.539Z,79.92
2023-01-17T07:09:22.499Z,80.33
2023-01-17T07:10:22.501Z,80.19
2023-01-17T07:11:22.523Z,80.09
2023-01-17T07:12:22.463Z,79.88
2023-01-17T07:13:22.441Z,80.02
2023-01-17T07:14:22.451Z,79.99
2023-01-17T07:15:22.432Z,79.82
2023-01-17T07:16:22.484Z,79.78
2023-01-17T07:17:22.395Z,79.51
2023-01-17T07:18:22.389Z,79.92
2023-01-17T07:19:22.401Z,80.13
2023-01-17T07:20:22.381Z,80.02
2023-01-17T07:21:22.383Z,79.92
2023-01-17T07:22:22.368Z,80.16
2023-01-17T07:23:22.349Z,80.27
2023-01-17T07:24:22.338Z,80.58
2023-01-17T07:25:22.321Z,80.68
2023-01-17T07:26:22.303Z,80.44
2023-01-17T07:27:22.341Z,79.92
2023-01-17T07:28:22.291Z,80.23
2023-01-17T07:29:22.285Z,80.23
2023-01-17T07:30:22.270Z,79.68
2023-01-17T07:31:22.372Z,79.82
2023-01-17T07:32:22.267Z,79.92
2023-01-17T07:33:22.246Z,79.78
2023-01-17T07:34:22.218Z,79.58
2023-01-17T07:35:22.207Z,79.58
2023-01-17T07:36:22.190Z,79.82
2023-01-17T07:37:22.187Z,80.13
2023-01-17T07:38:22.216Z,80.19
2023-01-17T07:39:22.164Z,79.68
2023-01-17T07:40:22.156Z,79.78
2023-01-17T07:41:22.144Z,80.02
2023-01-17T07:42:23.974Z,80.99
2023-01-17T07:43:22.126Z,81.93
2023-01-17T07:44:22.132Z,81.93
2023-01-17T07:45:22.113Z,81.82
2023-01-17T07:46:22.124Z,81.68
2023-01-17T07:47:22.086Z,80.96
2023-01-17T07:48:22.067Z,81.56
2023-01-17T07:49:22.053Z,82.65
2023-01-17T07:50:22.081Z,81.93
2023-01-17T07:51:22.031Z,82.24
2023-01-17T07:52:22.007Z,82.34
2023-01-17T07:53:22.010Z,81.99
2023-01-17T07:54:21.998Z,81.16
2023-01-17T07:55:21.977Z,80.99
2023-01-17T07:56:21.985Z,80.79
2023-01-17T07:57:21.970Z,80.75
2023-01-17T07:58:21.980Z,80.58
2023-01-17T07:59:21.944Z,82.18
2023-01-17T08:00:21.929Z,82.65
2023-01-17T08:01:22.152Z,82.03
2023-01-17T08:02:21.896Z,81.62
2023-01-17T08:03:21.885Z,81.30
2023-01-17T08:04:21.879Z,81.66
2023-01-17T08:05:21.882Z,82.39
2023-01-17T08:06:21.859Z,82.28
2023-01-17T08:07:21.892Z,82.59
2023-01-17T08:08:21.837Z,82.90
2023-01-17T08:09:21.861Z,82.80
2023-01-17T08:10:21.848Z,82.70
2023-01-17T08:11:21.809Z,82.55
2023-01-17T08:12:21.803Z,81.72
2023-01-17T08:13:21.819Z,81.41
2023-01-17T08:14:21.758Z,81.51
2023-01-17T08:15:21.767Z,81.30
2023-01-17T08:16:21.798Z,81.41
2023-01-17T08:17:21.758Z,81.10
2023-01-17T08:18:21.869Z,81.10
2023-01-17T08:19:21.739Z,81.41
2023-01-17T08:20:21.727Z,81.62
2023-01-17T08:21:21.693Z,82.03
2023-01-17T08:22:21.676Z,82.03
2023-01-17T08:23:21.674Z,81.82
2023-01-17T08:24:21.688Z,81.93
2023-01-17T08:25:21.648Z,82.34
2023-01-17T08:26:21.655Z,82.86
2023-01-17T08:27:21.627Z,83.01
2023-01-17T08:28:21.634Z,84.15
2023-01-17T08:29:21.599Z,84.36
2023-01-17T08:30:21.610Z,84.25
2023-01-17T08:31:21.620Z,83.59
2023-01-17T08:32:21.567Z,83.28
2023-01-17T08:33:21.551Z,82.58
2023-01-17T08:34:21.540Z,81.96
2023-01-17T08:35:21.529Z,80.71
2023-01-17T08:36:21.569Z,81.02
2023-01-17T08:37:21.524Z,80.92
2023-01-17T08:38:21.518Z,81.13
2023-01-17T08:39:21.566Z,81.20
2023-01-17T08:40:21.574Z,80.99
2023-01-17T08:41:21.522Z,80.74
2023-01-17T08:42:21.487Z,80.64
2023-01-17T08:43:21.453Z,80.33
2023-01-17T08:44:21.431Z,80.12
2023-01-17T08:45:21.426Z,80.05
2023-01-17T08:46:21.415Z,80.26
2023-01-17T08:47:21.460Z,80.54
2023-01-17T08:48:21.389Z,80.43
2023-01-17T08:49:21.396Z,79.77
2023-01-17T08:50:21.380Z,79.16
2023-01-17T08:51:21.364Z,79.16
2023-01-17T08:52:21.347Z,78.95
2023-01-17T08:53:21.380Z,79.05
2023-01-17T08:54:21.320Z,79.30
2023-01-17T08:55:21.321Z,79.47
2023-01-17T08:56:21.312Z,79.16
2023-01-17T08:57:21.305Z,78.50
2023-01-17T08:58:21.283Z,78.29
2023-01-17T08:59:21.281Z,78.08
2023-01-17T09:00:21.263Z,77.64
2023-01-17T09:01:21.337Z,77.19
2023-01-17T09:02:21.246Z,76.67
2023-01-17T09:03:21.220Z,76.26
2023-01-17T09:04:21.284Z,74.40
2023-01-17T09:05:21.194Z,73.67
2023-01-17T09:06:21.199Z,73.71
2023-01-17T09:07:21.183Z,74.63
2023-01-17T09:08:21.162Z,73.84
2023-01-17T09:09:21.160Z,73.81
2023-01-17T09:10:21.208Z,73.50
2023-01-17T09:11:21.140Z,73.81
2023-01-17T09:12:21.145Z,73.67
2023-01-17T09:13:21.106Z,72.78
2023-01-17T09:14:21.121Z,71.95
2023-01-17T09:15:21.098Z,72.50
2023-01-17T09:16:21.139Z,72.16
2023-01-17T09:17:21.098Z,71.74
2023-01-17T09:18:21.072Z,71.50
2023-01-17T09:19:21.041Z,71.19
2023-01-17T09:20:21.116Z,71.50
2023-01-17T09:21:21.066Z,70.81
2023-01-17T09:22:21.008Z,70.50
2023-01-17T09:23:21.003Z,70.92
2023-01-17T09:24:20.988Z,70.95
2023-01-17T09:25:20.977Z,69.82
2023-01-17T09:26:20.975Z,69.51
2023-01-17T09:27:20.970Z,69.12
2023-01-17T09:28:20.969Z,69.88
2023-01-17T09:29:20.928Z,70.53
2023-01-17T09:30:21.002Z,69.98
2023-01-17T09:31:20.939Z,69.67
2023-01-17T09:32:20.917Z,69.40
2023-01-17T09:33:20.936Z,70.88
2023-01-17T09:34:20.893Z,70.33
2023-01-17T09:35:20.875Z,69.68
2023-01-17T09:36:20.856Z,69.03
2023-01-17T09:37:20.846Z,69.58
2023-01-17T09:38:20.852Z,68.54
2023-01-17T09:39:20.889Z,68.54
2023-01-17T09:40:20.893Z,68.03
2023-01-17T09:41:20.785Z,67.82
2023-01-17T09:42:20.825Z,67.93
2023-01-17T09:43:20.767Z,68.24
2023-01-17T09:44:20.909Z,68.16
2023-01-17T09:45:20.743Z,67.88
2023-01-17T09:46:20.738Z,68.09
2023-01-17T09:47:20.803Z,67.72
2023-01-17T09:48:20.730Z,66.66
2023-01-17T09:49:20.701Z,65.94
2023-01-17T09:50:20.794Z,66.17
2023-01-17T09:51:20.675Z,66.38
2023-01-17T09:52:20.670Z,66.72
2023-01-17T09:53:20.689Z,66.82
2023-01-17T09:54:20.638Z,66.41
2023-01-17T09:55:20.668Z,66.54
2023-01-17T09:56:20.672Z,67.06
2023-01-17T09:57:20.632Z,66.67
2023-01-17T09:58:20.638Z,66.64
2023-01-17T09:59:20.601Z,66.54
2023-01-17T10:00:20.666Z,66.10
2023-01-17T10:01:20.811Z,65.64
2023-01-17T10:02:20.798Z,66.57
2023-01-17T10:03:20.662Z,66.54
2023-01-17T10:04:20.611Z,66.33
2023-01-17T10:05:20.522Z,66.13
2023-01-17T10:06:20.516Z,65.97
2023-01-17T10:07:20.501Z,63.87
2023-01-17T10:08:20.505Z,63.56
2023-01-17T10:09:20.464Z,64.46
2023-01-17T10:10:20.546Z,65.18
2023-01-17T10:11:20.452Z,64.81
2023-01-17T10:12:20.446Z,64.19
2023-01-17T10:13:20.439Z,62.68
2023-01-17T10:14:20.428Z,62.68
2023-01-17T10:15:20.408Z,62.37
2023-01-17T10:16:20.428Z,62.40
2023-01-17T10:17:20.366Z,62.92
2023-01-17T10:18:29.515Z,63.09
2023-01-17T10:19:21.411Z,61.68
2023-01-17T10:20:20.373Z,62.06
2023-01-17T10:21:20.319Z,62.26
2023-01-17T10:22:20.318Z,63.92
2023-01-17T10:23:20.316Z,62.78
2023-01-17T10:24:20.321Z,61.88
2023-01-17T10:25:20.317Z,61.91
2023-01-17T10:26:20.309Z,62.01
2023-01-17T10:27:20.270Z,62.29
2023-01-17T10:28:20.267Z,63.74
2023-01-17T10:29:21.132Z,62.06
2023-01-17T10:30:20.303Z,60.59
2023-01-17T10:31:20.240Z,60.38
2023-01-17T10:32:20.209Z,60.17
2023-01-17T10:33:20.209Z,59.74
2023-01-17T10:34:20.181Z,59.01
2023-01-17T10:35:20.171Z,59.12
2023-01-17T10:36:20.205Z,59.79
2023-01-17T10:37:20.154Z,61.08
2023-01-17T10:38:20.143Z,61.70
2023-01-17T10:39:20.198Z,61.40
2023-01-17T10:40:20.124Z,60.67
2023-01-17T10:41:20.153Z,60.75
2023-01-17T10:42:20.146Z,60.93
2023-01-17T10:43:20.100Z,61.13
2023-01-17T10:44:20.070Z,60.82
2023-01-17T10:45:20.064Z,61.24
2023-01-17T10:46:20.128Z,60.49
2023-01-17T10:47:20.054Z,59.97
2023-01-17T10:48:22.428Z,60.72
2023-01-17T10:49:20.021Z,60.64
2023-01-17T10:50:20.003Z,60.67
2023-01-17T10:51:19.984Z,61.36
2023-01-17T10:52:19.991Z,60.82
2023-01-17T10:53:20.037Z,61.00
2023-01-17T10:54:20.045Z,60.28
2023-01-17T10:55:19.943Z,59.01
2023-01-17T10:56:19.933Z,59.30
2023-01-17T10:57:19.932Z,59.68
2023-01-17T10:58:19.930Z,58.14
2023-01-17T10:59:19.962Z,56.82
2023-01-17T11:00:19.892Z,57.16
2023-01-17T11:01:19.981Z,58.81
2023-01-17T11:02:20.088Z,59.66
2023-01-17T11:03:19.862Z,59.69
2023-01-17T11:04:19.846Z,59.30
2023-01-17T11:05:19.847Z,58.87
2023-01-17T11:06:19.826Z,59.25
2023-01-17T11:07:19.827Z,59.88
2023-01-17T11:08:19.813Z,59.56
2023-01-17T11:09:19.804Z,59.05
2023-01-17T11:10:19.795Z,57.91
2023-01-17T11:11:19.772Z,57.76
2023-01-17T11:12:19.756Z,58.65
2023-01-17T11:13:19.747Z,61.03
2023-01-17T11:14:19.751Z,60.15
2023-01-17T11:15:19.762Z,60.28
2023-01-17T11:16:19.746Z,59.35
2023-01-17T11:17:19.695Z,59.84
2023-01-17T11:18:19.684Z,59.45
2023-01-17T11:19:19.731Z,60.56
2023-01-17T11:20:19.665Z,63.96
2023-01-17T11:21:19.658Z,66.12
2023-01-17T11:22:19.665Z,65.47
2023-01-17T11:23:19.644Z,62.49
2023-01-17T11:24:19.619Z,59.27
2023-01-17T11:25:19.615Z,56.41
2023-01-17T11:26:19.599Z,57.54
2023-01-17T11:27:19.595Z,59.47
2023-01-17T11:28:19.668Z,59.37
2023-01-17T11:29:19.575Z,62.15
2023-01-17T11:30:19.570Z,63.42
2023-01-17T11:31:19.613Z,64.96
2023-01-17T11:32:19.533Z,65.68
2023-01-17T11:33:19.526Z,66.43
2023-01-17T11:34:19.515Z,67.00
2023-01-17T11:35:19.495Z,69.24
2023-01-17T11:36:19.538Z,68.93
2023-01-17T11:37:19.530Z,68.90
2023-01-17T11:38:19.483Z,66.86
2023-01-17T11:39:19.483Z,68.51
2023-01-17T11:40:19.456Z,68.69
2023-01-17T11:41:19.426Z,68.32
2023-01-17T11:42:19.420Z,67.60
2023-01-17T11:43:19.412Z,67.32
2023-01-17T11:44:19.420Z,67.63
2023-01-17T11:45:19.420Z,68.21
2023-01-17T11:46:19.508Z,68.18
2023-01-17T11:47:19.454Z,66.94
2023-01-17T11:48:19.357Z,66.12
2023-01-17T11:49:19.345Z,66.09
2023-01-17T11:50:19.332Z,65.68
2023-01-17T11:51:19.353Z,64.83
2023-01-17T11:52:19.311Z,64.79
2023-01-17T11:53:19.289Z,63.56
2023-01-17T11:54:19.357Z,64.28
2023-01-17T11:55:19.340Z,64.31
2023-01-17T11:56:19.270Z,64.51
2023-01-17T11:57:19.291Z,63.97
2023-01-17T11:58:19.242Z,62.63
2023-01-17T11:59:19.247Z,63.43
2023-01-17T12:00:19.219Z,62.60
2023-01-17T12:01:19.245Z,62.09
2023-01-17T12:02:19.201Z,62.40
2023-01-17T12:03:19.247Z,62.48
2023-01-17T12:04:19.171Z,62.16
2023-01-17T12:05:19.232Z,61.99
2023-01-17T12:06:19.139Z,62.33
2023-01-17T12:07:19.155Z,62.23
2023-01-17T12:08:19.171Z,62.05
2023-01-17T12:09:19.135Z,61.77
2023-01-17T12:10:19.103Z,62.93
2023-01-17T12:11:19.115Z,64.14
2023-01-17T12:12:19.081Z,63.13
2023-01-17T12:13:19.115Z,63.24
2023-01-17T12:14:19.065Z,63.65
2023-01-17T12:15:19.099Z,63.13
2023-01-17T12:16:19.087Z,62.90
2023-01-17T12:17:19.024Z,62.05
2023-01-17T12:18:19.036Z,61.25
2023-01-17T12:19:19.061Z,61.98
2023-01-17T12:20:19.256Z,61.94
2023-01-17T12:21:18.985Z,60.91
2023-01-17T12:22:18.971Z,61.05
2023-01-17T12:23:18.955Z,61.87
2023-01-17T12:24:18.964Z,61.56
2023-01-17T12:25:18.979Z,61.53
2023-01-17T12:26:18.926Z,61.53
2023-01-17T12:27:18.915Z,61.74
2023-01-17T12:28:18.892Z,61.43
2023-01-17T12:29:18.893Z,61.12
2023-01-17T12:30:18.964Z,61.02
2023-01-17T12:31:18.899Z,60.50
2023-01-17T12:32:18.864Z,60.71
2023-01-17T12:33:18.854Z,60.74
2023-01-17T12:34:18.833Z,60.09
2023-01-17T12:35:18.834Z,60.50
2023-01-17T12:36:18.804Z,61.05
2023-01-17T12:37:18.873Z,61.87
2023-01-17T12:38:31.724Z,62.05
2023-01-17T12:39:19.778Z,62.19
2023-01-17T12:40:18.787Z,61.19
2023-01-17T12:41:18.749Z,60.61
2023-01-17T12:42:18.747Z,60.94
2023-01-17T12:43:18.756Z,62.62
2023-01-17T12:44:18.719Z,62.62
2023-01-17T12:45:18.759Z,59.68
2023-01-17T12:46:18.731Z,59.09
2023-01-17T12:47:18.695Z,61.18
2023-01-17T12:48:18.682Z,61.59
2023-01-17T12:49:18.676Z,60.84
2023-01-17T12:50:18.648Z,60.94
2023-01-17T12:51:18.648Z,62.59
2023-01-17T12:52:18.662Z,61.25